createdAt,value
2019-02-12T00:02:47.481Z,3.5
2019-02-12T00:07:47.934Z,3.6
2019-02-12T00:12:27.485Z,3.8
2019-02-12T00:17:27.258Z,3.8
2019-02-12T00:22:28.327Z,4.0
2019-02-12T00:27:28.403Z,4.0
2019-02-12T00:32:27.602Z,4.0
2019-02-12T00:37:27.132Z,3.9
2019-02-12T00:42:27.322Z,3.9
2019-02-12T00:47:27.981Z,3.9
2019-02-12T00:52:27.395Z,3.9
2019-02-12T00:57:28.277Z,3.8
2019-02-12T01:02:27.365Z,3.8
2019-02-12T01:07:28.082Z,3.8
2019-02-12T01:12:27.071Z,3.9
2019-02-12T01:17:29.158Z,4.0
2019-02-12T01:22:27.623Z,3.9
2019-02-12T01:27:27.713Z,4.0
2019-02-12T01:32:28.427Z,4.1
2019-02-12T01:37:27.203Z,4.1
2019-02-12T01:42:28.328Z,4.0
2019-02-12T01:47:27.491Z,3.9
2019-02-12T01:52:27.721Z,3.8
2019-02-12T01:57:28.159Z,3.8
2019-02-12T02:02:27.354Z,3.9
2019-02-12T02:07:27.662Z,3.9
2019-02-12T02:12:27.484Z,3.9
2019-02-12T02:17:27.886Z,3.9
2019-02-12T02:22:27.488Z,4.0
2019-02-12T02:27:28.135Z,4.1
2019-02-12T02:32:29.279Z,4.0
2019-02-12T02:37:27.471Z,4.0
2019-02-12T02:42:28.559Z,4.0
2019-02-12T02:47:27.484Z,3.9
2019-02-12T02:52:27.593Z,3.9
2019-02-12T02:57:27.456Z,3.9
2019-02-12T03:02:27.873Z,4.0
2019-02-12T03:07:27.977Z,4.0
2019-02-12T03:12:27.804Z,4.0
2019-02-12T03:17:27.950Z,4.0
2019-02-12T03:22:28.009Z,4.0
2019-02-12T03:27:27.923Z,4.0
2019-02-12T03:32:28.442Z,4.2
2019-02-12T03:37:28.456Z,4.3
2019-02-12T03:42:27.661Z,4.3
2019-02-12T03:47:28.640Z,4.3
2019-02-12T03:52:28.833Z,4.3
2019-02-12T03:57:27.606Z,4.3
2019-02-12T04:02:28.032Z,4.3
2019-02-12T04:07:28.259Z,4.3
2019-02-12T04:12:28.234Z,4.3
2019-02-12T04:17:27.802Z,4.3
2019-02-12T04:22:27.796Z,4.3
2019-02-12T04:27:27.371Z,4.3
2019-02-12T04:32:27.710Z,4.3
2019-02-12T04:37:28.519Z,4.4
2019-02-12T04:42:29.367Z,4.4
2019-02-12T04:47:27.940Z,4.3
2019-02-12T04:52:31.866Z,4.2
2019-02-12T04:57:27.495Z,4.1
2019-02-12T05:02:28.284Z,4.0
2019-02-12T05:07:28.845Z,4.0
2019-02-12T05:12:28.198Z,3.9
2019-02-12T05:17:28.957Z,3.8
2019-02-12T05:22:28.189Z,3.7
2019-02-12T05:27:28.023Z,3.6
2019-02-12T05:32:27.509Z,3.6
2019-02-12T05:37:27.637Z,3.6
2019-02-12T05:42:27.720Z,3.6
2019-02-12T05:47:27.774Z,3.5
2019-02-12T05:52:27.878Z,3.4
2019-02-12T05:57:27.738Z,3.4
2019-02-12T06:02:28.058Z,3.4
2019-02-12T06:07:27.807Z,3.3
2019-02-12T06:12:28.212Z,3.2
2019-02-12T06:17:28.276Z,3.3
2019-02-12T06:22:27.993Z,3.3
2019-02-12T06:27:30.178Z,3.4
2019-02-12T06:32:28.595Z,3.5
2019-02-12T06:37:29.913Z,3.6
2019-02-12T06:42:28.322Z,3.7
2019-02-12T06:47:28.459Z,3.8
2019-02-12T06:52:28.641Z,3.8
2019-02-12T06:57:28.279Z,3.8
2019-02-12T07:02:29.343Z,3.8
2019-02-12T07:07:28.833Z,3.9
2019-02-12T07:12:29.492Z,3.8
2019-02-12T07:17:28.925Z,3.9
2019-02-12T07:22:28.640Z,3.9
2019-02-12T07:27:29.564Z,3.9
2019-02-12T07:32:28.687Z,4.0
2019-02-12T07:37:28.388Z,4.0
2019-02-12T07:42:29.003Z,4.0
2019-02-12T07:47:28.478Z,4.2
2019-02-12T07:52:27.496Z,4.2
2019-02-12T07:57:28.917Z,4.5
2019-02-12T08:02:28.896Z,4.8
2019-02-12T08:07:29.621Z,5.3
2019-02-12T08:12:28.546Z,5.6
2019-02-12T08:17:28.477Z,5.8
2019-02-12T08:22:28.305Z,5.8
2019-02-12T08:27:28.640Z,5.7
2019-02-12T08:32:29.749Z,5.7
2019-02-12T08:37:28.712Z,5.7
2019-02-12T08:42:29.075Z,5.9
2019-02-12T08:47:29.207Z,5.9
2019-02-12T08:52:28.710Z,6.1
2019-02-12T08:57:28.167Z,6.2
2019-02-12T09:02:28.602Z,6.0
2019-02-12T09:07:28.266Z,5.8
2019-02-12T09:12:29.048Z,5.8
2019-02-12T09:17:28.889Z,5.9
2019-02-12T09:22:29.096Z,6.2
2019-02-12T09:27:28.214Z,6.3
2019-02-12T09:32:28.602Z,6.7
2019-02-12T09:37:28.336Z,6.6
2019-02-12T09:42:27.823Z,7.1
2019-02-12T09:47:28.395Z,7.1
2019-02-12T09:52:28.221Z,6.8
2019-02-12T09:57:28.581Z,6.8
2019-02-12T10:02:29.032Z,6.8
2019-02-12T10:07:28.143Z,7.0
2019-02-12T10:12:27.865Z,7.3
2019-02-12T10:17:27.924Z,7.3
2019-02-12T10:22:28.422Z,7.3
2019-02-12T10:27:28.697Z,7.3
2019-02-12T10:32:29.662Z,7.3
2019-02-12T10:37:28.582Z,7.4
2019-02-12T10:42:29.220Z,7.7
2019-02-12T10:47:29.249Z,8.1
2019-02-12T10:52:28.459Z,8.4
2019-02-12T10:57:27.497Z,8.9
2019-02-12T11:02:28.718Z,9.2
2019-02-12T11:07:28.503Z,8.8
2019-02-12T11:12:28.292Z,8.0
2019-02-12T11:17:28.781Z,8.0
2019-02-12T11:22:27.553Z,7.8
2019-02-12T11:27:28.880Z,7.8
2019-02-12T11:32:29.015Z,8.2
2019-02-12T11:37:28.421Z,8.3
2019-02-12T11:42:28.559Z,8.3
2019-02-12T11:47:28.416Z,8.2
2019-02-12T11:52:27.931Z,8.2
2019-02-12T11:57:27.995Z,8.1
2019-02-12T12:02:28.351Z,8.0
2019-02-12T12:07:28.157Z,8.4
2019-02-12T12:12:28.398Z,8.3
2019-02-12T12:17:29.385Z,8.8
2019-02-12T12:22:27.885Z,8.8
2019-02-12T12:27:28.514Z,9.0
2019-02-12T12:32:28.712Z,9.1
2019-02-12T12:37:28.896Z,9.2
2019-02-12T12:42:28.493Z,9.6
2019-02-12T12:47:28.805Z,9.5
2019-02-12T12:52:28.132Z,9.2
2019-02-12T12:57:27.611Z,8.9
2019-02-12T13:02:28.225Z,8.7
2019-02-12T13:07:28.786Z,8.4
2019-02-12T13:12:30.260Z,8.4
2019-02-12T13:17:29.065Z,8.3
2019-02-12T13:22:27.750Z,8.6
2019-02-12T13:27:29.099Z,8.6
2019-02-12T13:32:28.820Z,8.7
2019-02-12T13:37:28.822Z,8.6
2019-02-12T13:42:28.662Z,8.7
2019-02-12T13:47:28.721Z,8.6
2019-02-12T13:52:28.267Z,8.7
2019-02-12T13:57:28.000Z,8.9
2019-02-12T14:02:28.872Z,9.3
2019-02-12T14:07:28.562Z,9.6
2019-02-12T14:12:28.307Z,9.4
2019-02-12T14:17:28.236Z,9.1
2019-02-12T14:22:28.341Z,8.8
2019-02-12T14:27:28.608Z,8.5
2019-02-12T14:32:27.965Z,8.3
2019-02-12T14:37:28.513Z,8.4
2019-02-12T14:42:28.368Z,8.6
2019-02-12T14:47:28.839Z,8.5
2019-02-12T14:52:29.160Z,8.5
2019-02-12T14:57:28.329Z,8.6
2019-02-12T15:02:29.132Z,8.6
2019-02-12T15:07:28.779Z,8.6
2019-02-12T15:12:28.874Z,8.6
2019-02-12T15:17:28.784Z,8.6
2019-02-12T15:22:28.778Z,8.6
2019-02-12T15:27:28.185Z,8.9
2019-02-12T15:32:27.813Z,8.8
2019-02-12T15:37:27.821Z,8.3
2019-02-12T15:42:28.445Z,8.2
2019-02-12T15:47:27.565Z,8.0
2019-02-12T15:52:28.014Z,8.0
2019-02-12T15:57:27.683Z,8.1
2019-02-12T16:02:28.761Z,9.2
2019-02-12T16:07:29.037Z,9.3
2019-02-12T16:12:28.789Z,8.3
2019-02-12T16:17:28.828Z,7.5
2019-02-12T16:22:29.233Z,7.0
2019-02-12T16:27:28.241Z,6.5
2019-02-12T16:32:28.261Z,6.1
2019-02-12T16:37:28.054Z,5.9
2019-02-12T16:42:28.600Z,5.7
2019-02-12T16:47:27.854Z,5.5
2019-02-12T16:52:28.190Z,5.3
2019-02-12T16:57:28.115Z,5.1
2019-02-12T17:02:28.597Z,5.1
2019-02-12T17:07:28.369Z,5.0
2019-02-12T17:12:28.067Z,4.9
2019-02-12T17:17:28.850Z,4.9
2019-02-12T17:22:28.438Z,4.9
2019-02-12T17:27:29.041Z,4.9
2019-02-12T17:32:27.764Z,5.0
2019-02-12T17:37:29.218Z,5.0
2019-02-12T17:42:27.122Z,5.0
2019-02-12T17:47:27.720Z,5.0
2019-02-12T17:52:27.926Z,4.9
2019-02-12T17:57:29.833Z,4.7
2019-02-12T18:02:28.144Z,4.7
2019-02-12T18:07:27.761Z,4.6
2019-02-12T18:12:27.573Z,4.5
2019-02-12T18:17:28.684Z,4.5
2019-02-12T18:22:27.764Z,4.4
2019-02-12T18:27:27.680Z,4.2
2019-02-12T18:32:27.823Z,4.1
2019-02-12T18:37:28.589Z,3.9
2019-02-12T18:42:28.191Z,3.8
2019-02-12T18:47:27.515Z,3.7
2019-02-12T18:52:28.231Z,3.7
2019-02-12T18:57:27.715Z,3.6
2019-02-12T19:02:28.007Z,3.5
2019-02-12T19:07:27.989Z,3.5
2019-02-12T19:12:27.572Z,3.5
2019-02-12T19:17:28.673Z,3.5
2019-02-12T19:22:27.577Z,3.5
2019-02-12T19:27:28.354Z,3.5
2019-02-12T19:32:29.383Z,3.4
2019-02-12T19:37:28.224Z,3.4
2019-02-12T19:42:28.585Z,3.3
2019-02-12T19:47:28.646Z,3.3
2019-02-12T19:52:27.276Z,3.2
2019-02-12T19:57:27.773Z,3.1
2019-02-12T20:02:28.432Z,3.0
2019-02-12T20:07:28.093Z,2.8
2019-02-12T20:12:27.630Z,2.8
2019-02-12T20:17:29.190Z,2.8
2019-02-12T20:22:27.733Z,2.6
2019-02-12T20:27:35.713Z,2.5
2019-02-12T20:32:28.273Z,2.5
2019-02-12T20:37:28.251Z,2.4
2019-02-12T20:42:28.943Z,2.3
2019-02-12T20:47:28.178Z,1.9
2019-02-12T20:52:28.372Z,1.9
2019-02-12T20:57:28.808Z,1.8
2019-02-12T21:02:27.940Z,1.8
2019-02-12T21:07:28.251Z,1.7
2019-02-12T21:12:28.466Z,1.7
2019-02-12T21:17:28.085Z,1.5
2019-02-12T21:22:27.644Z,1.5
2019-02-12T21:27:27.632Z,1.6
2019-02-12T21:32:27.964Z,1.6
2019-02-12T21:37:27.570Z,1.6
2019-02-12T21:42:27.577Z,1.5
2019-02-12T21:47:28.292Z,1.7
2019-02-12T21:52:27.217Z,1.7
2019-02-12T21:57:31.646Z,1.7
2019-02-12T22:02:27.294Z,1.6
2019-02-12T22:07:28.994Z,1.5
2019-02-12T22:12:27.210Z,1.5
2019-02-12T22:17:28.036Z,1.4
2019-02-12T22:22:27.569Z,1.4
2019-02-12T22:27:27.652Z,1.2
2019-02-12T22:32:27.862Z,1.2
2019-02-12T22:37:27.518Z,1.0
2019-02-12T22:42:27.553Z,1.0
2019-02-12T22:47:27.495Z,1.0
2019-02-12T22:52:28.096Z,1.0
2019-02-12T22:57:27.924Z,0.9
2019-02-12T23:02:28.802Z,0.9
2019-02-12T23:07:28.398Z,0.8
2019-02-12T23:12:27.783Z,0.8
2019-02-12T23:22:46.841Z,0.6
2019-02-12T23:27:45.189Z,0.5
2019-02-12T23:32:44.548Z,0.5
2019-02-12T23:37:44.291Z,0.5
2019-02-12T23:42:45.047Z,0.5
2019-02-12T23:47:44.178Z,0.6
2019-02-12T23:52:44.885Z,0.6
2019-02-12T23:57:44.663Z,0.6
